Lewiston, New York
Current Conditions -  °F | °C
As of 4:53 PM on Friday 31 Oct 2014 (Local Time) from KIAG Reporting Station
Light Rain Light Rain  
Wind Chill: 43°   Ceiling: 4400
Heat Index: 47°   Visibility: 10mi
Dew Point: 38°   Wind: 8mph
Humidity: 71%   Direction: 150°SSE
Pressure: 29.89"   Gusts: NA
Location:  43.17°N, 79.04°W
Report Text: KIAG 312053Z 15007KT 10SM -RA FEW025 OVC044 08/03 A2989 RMK AO2 SLP130 P0000 60000 T00830033 55000 $
Loading
Personal Weather Stations






























Interactive Weather Map
Tropical Storm Tracking
New forecast layout! Learn more

10-Day Weather Forecast

Advertisements
Track Severe Weather on mobile